Ama, LA

7:01 PM CST on December 17, 2014 (GMT -0600)
Willowridge Estates | Change Station
CLOSE
Current Station
Personal Weather Station
Location: Luling, LA
Elevation: 14 ft
Nearby Weather Stations

Elev 14 ft 29.89 °N, 90.34 °W | Updated 8 minutes ago

Partly Cloudy
Partly Cloudy
47.3 °F
Feels Like 47 °F
N
0.0
Wind Variable Wind from NW
Gusts 0.0 mph

Today
High -- | Low -- °F
--% Chance of Precip.
Yesterday
High -- | Low -- °F
Precip. -- in
6:50 AM 5:04 PM
Waning Crescent, 18% visible
Pressure 30.20 in
Visibility 10.0 miles
Clouds Few 24000 ft
Mostly Cloudy 27000 ft
Windchill 47 °F
Dew Point 44 °F
Humidity 89%
Rainfall 0.00 in
Snow Depth Not available.
UV 0 out of 12
Pollen 4.90 out of 12
Air Quality Not available.
Flu Activity Not available.
METAR KMSY 180053Z 00000KT 10SM FEW240 BKN270 11/04 A3019 RMK AO2 SLP226 T01060044

More Conditions Fewer Conditions

Pressure 30.20 in
Visibility 10.0 miles
Clouds Few 24000 ft
Mostly Cloudy 27000 ft
Windchill 47 °F
Dew Point 44 °F
Humidity 89%
Rainfall 0.00 in
Snow Depth Not available.
UV 0 out of 12
Pollen 4.90 out of 12
Air Quality Not available.
Flu Activity Not available.
METAR KMSY 180053Z 00000KT 10SM FEW240 BKN270 11/04 A3019 RMK AO2 SLP226 T01060044

More Conditions Fewer Conditions

10-Day Weather Forecast

Almanac

Astronomy

Dec. 17, 2014 Rise Set
Actual Time
Civil Twilight
Nautical Twilight
Astronomical Twilight
Moon
Length of Visible Light
Length of Day
Tomorrow will be .
, % of the Moon is Illuminated

Today's Extremes

State Highs State Lows

Community

WunderPhotos

Upload Photos

1,778,843 photos uploaded!

WunderBlogs® & News

Nearby

Air Quality

  Air Quality AQ Index Pollutant
Not available.

Snow Depth

Station Depth Elevation

Earthquake Activity

City Distance Mag. Time & Date
Minimum magnitude displayed is 2.5.

Coastal Water Temperatures

Place Temperature

Nearby Weather Stations